sensor_id;sensor_type;location;lat;lon;timestamp;P1;durP1;ratioP1;P2;durP2;ratioP2
9447;SDS011;4762;48.128;11.376;2023-04-08T00:00:49;10.53;;;4.00;;
9447;SDS011;4762;48.128;11.376;2023-04-08T00:02:51;5.10;;;3.57;;
9447;SDS011;4762;48.128;11.376;2023-04-08T00:04:54;4.37;;;2.40;;
9447;SDS011;4762;48.128;11.376;2023-04-08T00:06:56;4.30;;;2.57;;
9447;SDS011;4762;48.128;11.376;2023-04-08T00:08:59;4.97;;;2.27;;
9447;SDS011;4762;48.128;11.376;2023-04-08T00:11:01;4.43;;;3.00;;
9447;SDS011;4762;48.128;11.376;2023-04-08T00:13:03;3.53;;;2.27;;
9447;SDS011;4762;48.128;11.376;2023-04-08T00:15:06;2.73;;;1.80;;
9447;SDS011;4762;48.128;11.376;2023-04-08T00:17:08;5.20;;;2.50;;
9447;SDS011;4762;48.128;11.376;2023-04-08T00:19:10;3.30;;;2.00;;
9447;SDS011;4762;48.128;11.376;2023-04-08T00:21:13;3.17;;;2.07;;
9447;SDS011;4762;48.128;11.376;2023-04-08T00:23:15;5.70;;;2.00;;
9447;SDS011;4762;48.128;11.376;2023-04-08T00:25:17;7.83;;;2.47;;
9447;SDS011;4762;48.128;11.376;2023-04-08T00:27:19;4.83;;;2.97;;
9447;SDS011;4762;48.128;11.376;2023-04-08T00:29:22;3.97;;;2.50;;
9447;SDS011;4762;48.128;11.376;2023-04-08T00:31:24;3.17;;;2.20;;
9447;SDS011;4762;48.128;11.376;2023-04-08T00:33:26;2.93;;;2.03;;
9447;SDS011;4762;48.128;11.376;2023-04-08T00:35:28;5.30;;;3.37;;
9447;SDS011;4762;48.128;11.376;2023-04-08T00:37:31;5.30;;;2.10;;
9447;SDS011;4762;48.128;11.376;2023-04-08T00:39:33;4.80;;;2.50;;
9447;SDS011;4762;48.128;11.376;2023-04-08T00:41:36;6.23;;;2.77;;
9447;SDS011;4762;48.128;11.376;2023-04-08T00:43:38;6.20;;;2.70;;
9447;SDS011;4762;48.128;11.376;2023-04-08T00:45:41;4.30;;;3.00;;
9447;SDS011;4762;48.128;11.376;2023-04-08T00:47:44;4.47;;;2.37;;
9447;SDS011;4762;48.128;11.376;2023-04-08T00:49:46;2.90;;;1.93;;
9447;SDS011;4762;48.128;11.376;2023-04-08T00:51:48;4.10;;;2.47;;
9447;SDS011;4762;48.128;11.376;2023-04-08T00:53:51;2.80;;;1.97;;
9447;SDS011;4762;48.128;11.376;2023-04-08T00:55:53;6.93;;;2.50;;
9447;SDS011;4762;48.128;11.376;2023-04-08T00:57:55;3.87;;;2.03;;
9447;SDS011;4762;48.128;11.376;2023-04-08T00:59:58;5.30;;;2.00;;
9447;SDS011;4762;48.128;11.376;2023-04-08T01:03:08;2.97;;;1.70;;
9447;SDS011;4762;48.128;11.376;2023-04-08T01:04:32;3.30;;;1.80;;
9447;SDS011;4762;48.128;11.376;2023-04-08T01:06:34;3.67;;;2.30;;
9447;SDS011;4762;48.128;11.376;2023-04-08T01:08:44;5.33;;;3.23;;
9447;SDS011;4762;48.128;11.376;2023-04-08T01:10:47;4.33;;;2.50;;
9447;SDS011;4762;48.128;11.376;2023-04-08T01:12:51;6.70;;;2.40;;
9447;SDS011;4762;48.128;11.376;2023-04-08T01:14:56;4.37;;;2.63;;
9447;SDS011;4762;48.128;11.376;2023-04-08T01:16:58;4.47;;;2.40;;
9447;SDS011;4762;48.128;11.376;2023-04-08T01:19:00;5.13;;;2.47;;
9447;SDS011;4762;48.128;11.376;2023-04-08T01:21:02;6.87;;;2.90;;
9447;SDS011;4762;48.128;11.376;2023-04-08T01:25:32;3.73;;;2.27;;
9447;SDS011;4762;48.128;11.376;2023-04-08T01:27:34;4.67;;;3.00;;
9447;SDS011;4762;48.128;11.376;2023-04-08T01:29:36;4.97;;;2.63;;
9447;SDS011;4762;48.128;11.376;2023-04-08T01:31:39;4.53;;;2.17;;
9447;SDS011;4762;48.128;11.376;2023-04-08T01:33:42;2.97;;;1.80;;
9447;SDS011;4762;48.128;11.376;2023-04-08T01:35:44;15.33;;;2.97;;
9447;SDS011;4762;48.128;11.376;2023-04-08T01:37:48;7.13;;;2.80;;
9447;SDS011;4762;48.128;11.376;2023-04-08T01:39:49;2.90;;;2.10;;
9447;SDS011;4762;48.128;11.376;2023-04-08T01:41:52;3.60;;;2.50;;
9447;SDS011;4762;48.128;11.376;2023-04-08T01:43:54;4.30;;;2.87;;
9447;SDS011;4762;48.128;11.376;2023-04-08T01:45:56;3.40;;;2.40;;
9447;SDS011;4762;48.128;11.376;2023-04-08T01:47:59;2.30;;;2.00;;
9447;SDS011;4762;48.128;11.376;2023-04-08T01:50:01;3.70;;;2.23;;
9447;SDS011;4762;48.128;11.376;2023-04-08T01:52:03;4.90;;;2.60;;
9447;SDS011;4762;48.128;11.376;2023-04-08T01:54:06;5.63;;;2.37;;
9447;SDS011;4762;48.128;11.376;2023-04-08T01:56:10;6.43;;;2.57;;
9447;SDS011;4762;48.128;11.376;2023-04-08T01:58:11;3.93;;;2.67;;
9447;SDS011;4762;48.128;11.376;2023-04-08T02:00:13;5.87;;;3.53;;
9447;SDS011;4762;48.128;11.376;2023-04-08T02:02:15;2.70;;;2.20;;
9447;SDS011;4762;48.128;11.376;2023-04-08T02:04:17;6.83;;;2.73;;
9447;SDS011;4762;48.128;11.376;2023-04-08T02:06:19;10.80;;;3.07;;
9447;SDS011;4762;48.128;11.376;2023-04-08T02:08:22;4.10;;;3.00;;
9447;SDS011;4762;48.128;11.376;2023-04-08T02:10:24;4.40;;;2.93;;
9447;SDS011;4762;48.128;11.376;2023-04-08T02:12:26;5.63;;;3.20;;
9447;SDS011;4762;48.128;11.376;2023-04-08T02:14:28;5.80;;;3.40;;
9447;SDS011;4762;48.128;11.376;2023-04-08T02:16:49;5.47;;;2.70;;
9447;SDS011;4762;48.128;11.376;2023-04-08T02:18:55;5.83;;;3.13;;
9447;SDS011;4762;48.128;11.376;2023-04-08T02:20:59;5.60;;;2.60;;
9447;SDS011;4762;48.128;11.376;2023-04-08T02:23:18;2.90;;;1.90;;
9447;SDS011;4762;48.128;11.376;2023-04-08T02:25:19;4.17;;;2.87;;
9447;SDS011;4762;48.128;11.376;2023-04-08T02:27:19;4.07;;;2.43;;
9447;SDS011;4762;48.128;11.376;2023-04-08T02:29:21;6.07;;;2.47;;
9447;SDS011;4762;48.128;11.376;2023-04-08T02:31:23;3.23;;;2.30;;
9447;SDS011;4762;48.128;11.376;2023-04-08T02:33:26;4.73;;;2.70;;
9447;SDS011;4762;48.128;11.376;2023-04-08T02:35:29;3.43;;;2.50;;
9447;SDS011;4762;48.128;11.376;2023-04-08T02:37:31;3.83;;;2.00;;
9447;SDS011;4762;48.128;11.376;2023-04-08T02:39:33;5.13;;;2.63;;
9447;SDS011;4762;48.128;11.376;2023-04-08T02:41:35;3.50;;;2.60;;
9447;SDS011;4762;48.128;11.376;2023-04-08T02:43:38;6.33;;;3.30;;
9447;SDS011;4762;48.128;11.376;2023-04-08T02:45:40;6.50;;;2.60;;
9447;SDS011;4762;48.128;11.376;2023-04-08T02:47:42;11.03;;;4.20;;
9447;SDS011;4762;48.128;11.376;2023-04-08T02:49:44;4.17;;;2.90;;
9447;SDS011;4762;48.128;11.376;2023-04-08T02:51:47;5.30;;;3.10;;
9447;SDS011;4762;48.128;11.376;2023-04-08T02:53:49;10.40;;;3.57;;
9447;SDS011;4762;48.128;11.376;2023-04-08T02:55:51;3.20;;;2.43;;
9447;SDS011;4762;48.128;11.376;2023-04-08T02:57:53;6.80;;;3.47;;
9447;SDS011;4762;48.128;11.376;2023-04-08T02:59:55;5.43;;;3.30;;
9447;SDS011;4762;48.128;11.376;2023-04-08T03:01:58;5.17;;;3.50;;
9447;SDS011;4762;48.128;11.376;2023-04-08T03:04:00;3.17;;;2.20;;
9447;SDS011;4762;48.128;11.376;2023-04-08T03:06:02;6.70;;;4.00;;
9447;SDS011;4762;48.128;11.376;2023-04-08T03:08:04;5.03;;;2.90;;
9447;SDS011;4762;48.128;11.376;2023-04-08T03:10:07;5.03;;;2.90;;
9447;SDS011;4762;48.128;11.376;2023-04-08T03:12:09;7.03;;;3.80;;
9447;SDS011;4762;48.128;11.376;2023-04-08T03:14:12;3.40;;;2.93;;
9447;SDS011;4762;48.128;11.376;2023-04-08T03:16:14;6.53;;;3.50;;
9447;SDS011;4762;48.128;11.376;2023-04-08T03:18:16;5.00;;;3.60;;
9447;SDS011;4762;48.128;11.376;2023-04-08T03:20:18;5.53;;;2.90;;
9447;SDS011;4762;48.128;11.376;2023-04-08T03:22:21;4.27;;;3.17;;
9447;SDS011;4762;48.128;11.376;2023-04-08T03:24:23;9.13;;;4.57;;
9447;SDS011;4762;48.128;11.376;2023-04-08T03:26:25;3.93;;;2.87;;
9447;SDS011;4762;48.128;11.376;2023-04-08T03:28:28;7.20;;;3.30;;
9447;SDS011;4762;48.128;11.376;2023-04-08T03:30:30;6.13;;;3.80;;
9447;SDS011;4762;48.128;11.376;2023-04-08T03:32:32;4.97;;;3.20;;
9447;SDS011;4762;48.128;11.376;2023-04-08T03:34:34;7.57;;;4.30;;
9447;SDS011;4762;48.128;11.376;2023-04-08T03:36:37;13.93;;;3.83;;
9447;SDS011;4762;48.128;11.376;2023-04-08T03:38:39;4.27;;;3.23;;
9447;SDS011;4762;48.128;11.376;2023-04-08T03:40:41;5.60;;;4.63;;
9447;SDS011;4762;48.128;11.376;2023-04-08T03:42:43;4.23;;;3.07;;
9447;SDS011;4762;48.128;11.376;2023-04-08T03:44:46;4.40;;;2.60;;
9447;SDS011;4762;48.128;11.376;2023-04-08T03:46:48;7.90;;;3.90;;
9447;SDS011;4762;48.128;11.376;2023-04-08T03:48:50;5.80;;;3.20;;
9447;SDS011;4762;48.128;11.376;2023-04-08T03:50:52;6.70;;;4.17;;
9447;SDS011;4762;48.128;11.376;2023-04-08T03:52:54;4.80;;;4.00;;
9447;SDS011;4762;48.128;11.376;2023-04-08T03:54:57;4.90;;;3.10;;
9447;SDS011;4762;48.128;11.376;2023-04-08T03:56:59;3.77;;;2.47;;
9447;SDS011;4762;48.128;11.376;2023-04-08T03:59:01;5.30;;;3.70;;
9447;SDS011;4762;48.128;11.376;2023-04-08T04:01:03;5.23;;;3.53;;
9447;SDS011;4762;48.128;11.376;2023-04-08T04:03:06;5.23;;;3.70;;
9447;SDS011;4762;48.128;11.376;2023-04-08T04:05:08;7.47;;;3.60;;
9447;SDS011;4762;48.128;11.376;2023-04-08T04:07:10;4.27;;;3.23;;
9447;SDS011;4762;48.128;11.376;2023-04-08T04:09:12;5.30;;;3.40;;
9447;SDS011;4762;48.128;11.376;2023-04-08T04:11:15;6.97;;;4.30;;
9447;SDS011;4762;48.128;11.376;2023-04-08T04:13:17;5.93;;;4.63;;
9447;SDS011;4762;48.128;11.376;2023-04-08T04:15:19;3.73;;;2.87;;
9447;SDS011;4762;48.128;11.376;2023-04-08T04:17:21;8.40;;;4.70;;
9447;SDS011;4762;48.128;11.376;2023-04-08T04:19:24;7.47;;;3.87;;
9447;SDS011;4762;48.128;11.376;2023-04-08T04:21:26;8.93;;;4.60;;
9447;SDS011;4762;48.128;11.376;2023-04-08T04:23:28;5.27;;;3.67;;
9447;SDS011;4762;48.128;11.376;2023-04-08T04:25:30;7.27;;;4.00;;
9447;SDS011;4762;48.128;11.376;2023-04-08T04:27:32;7.17;;;3.80;;
9447;SDS011;4762;48.128;11.376;2023-04-08T04:29:35;9.00;;;4.30;;
9447;SDS011;4762;48.128;11.376;2023-04-08T04:31:37;7.53;;;4.10;;
9447;SDS011;4762;48.128;11.376;2023-04-08T04:33:39;7.90;;;4.70;;
9447;SDS011;4762;48.128;11.376;2023-04-08T04:35:41;4.20;;;3.27;;
9447;SDS011;4762;48.128;11.376;2023-04-08T04:37:44;6.40;;;3.57;;
9447;SDS011;4762;48.128;11.376;2023-04-08T04:39:46;6.27;;;3.80;;
9447;SDS011;4762;48.128;11.376;2023-04-08T04:41:50;9.43;;;4.17;;
9447;SDS011;4762;48.128;11.376;2023-04-08T04:43:53;9.03;;;4.20;;
9447;SDS011;4762;48.128;11.376;2023-04-08T04:45:56;7.30;;;3.37;;
9447;SDS011;4762;48.128;11.376;2023-04-08T04:47:58;6.97;;;4.00;;
9447;SDS011;4762;48.128;11.376;2023-04-08T04:50:00;4.43;;;3.63;;
9447;SDS011;4762;48.128;11.376;2023-04-08T04:52:03;7.07;;;4.70;;
9447;SDS011;4762;48.128;11.376;2023-04-08T04:54:05;8.90;;;5.43;;
9447;SDS011;4762;48.128;11.376;2023-04-08T04:56:07;7.50;;;5.50;;
9447;SDS011;4762;48.128;11.376;2023-04-08T04:58:09;4.17;;;3.73;;
9447;SDS011;4762;48.128;11.376;2023-04-08T05:00:11;6.77;;;3.77;;
9447;SDS011;4762;48.128;11.376;2023-04-08T05:02:14;5.27;;;3.87;;
9447;SDS011;4762;48.128;11.376;2023-04-08T05:04:16;9.50;;;4.60;;
9447;SDS011;4762;48.128;11.376;2023-04-08T05:06:18;7.80;;;4.83;;
9447;SDS011;4762;48.128;11.376;2023-04-08T05:08:20;9.30;;;4.13;;
9447;SDS011;4762;48.128;11.376;2023-04-08T05:10:22;8.10;;;4.33;;
9447;SDS011;4762;48.128;11.376;2023-04-08T05:12:25;10.23;;;5.70;;
9447;SDS011;4762;48.128;11.376;2023-04-08T05:14:28;13.70;;;5.57;;
9447;SDS011;4762;48.128;11.376;2023-04-08T05:16:30;7.60;;;5.40;;
9447;SDS011;4762;48.128;11.376;2023-04-08T05:18:32;9.57;;;4.70;;
9447;SDS011;4762;48.128;11.376;2023-04-08T05:20:34;9.10;;;5.60;;
9447;SDS011;4762;48.128;11.376;2023-04-08T05:22:37;15.60;;;5.27;;
9447;SDS011;4762;48.128;11.376;2023-04-08T05:24:39;10.33;;;4.97;;
9447;SDS011;4762;48.128;11.376;2023-04-08T05:26:41;6.40;;;4.63;;
9447;SDS011;4762;48.128;11.376;2023-04-08T05:28:43;5.80;;;4.63;;
9447;SDS011;4762;48.128;11.376;2023-04-08T05:30:48;8.93;;;4.20;;
9447;SDS011;4762;48.128;11.376;2023-04-08T05:32:51;11.33;;;5.43;;
9447;SDS011;4762;48.128;11.376;2023-04-08T05:34:53;4.37;;;3.50;;
9447;SDS011;4762;48.128;11.376;2023-04-08T05:36:55;6.77;;;5.07;;
9447;SDS011;4762;48.128;11.376;2023-04-08T05:38:57;13.07;;;4.90;;
9447;SDS011;4762;48.128;11.376;2023-04-08T05:41:00;5.80;;;4.17;;
9447;SDS011;4762;48.128;11.376;2023-04-08T05:43:02;8.90;;;5.20;;
9447;SDS011;4762;48.128;11.376;2023-04-08T05:45:04;8.87;;;5.13;;
9447;SDS011;4762;48.128;11.376;2023-04-08T05:47:07;5.67;;;3.90;;
9447;SDS011;4762;48.128;11.376;2023-04-08T05:49:09;5.00;;;4.17;;
9447;SDS011;4762;48.128;11.376;2023-04-08T05:51:13;6.60;;;4.33;;
9447;SDS011;4762;48.128;11.376;2023-04-08T05:53:15;6.67;;;4.10;;
9447;SDS011;4762;48.128;11.376;2023-04-08T05:55:17;5.70;;;3.97;;
9447;SDS011;4762;48.128;11.376;2023-04-08T05:57:19;6.00;;;3.90;;
9447;SDS011;4762;48.128;11.376;2023-04-08T05:59:21;13.00;;;4.53;;
9447;SDS011;4762;48.128;11.376;2023-04-08T06:01:23;5.93;;;4.43;;
9447;SDS011;4762;48.128;11.376;2023-04-08T06:03:26;8.37;;;4.70;;
9447;SDS011;4762;48.128;11.376;2023-04-08T06:05:30;8.03;;;3.80;;
9447;SDS011;4762;48.128;11.376;2023-04-08T06:07:31;5.77;;;3.20;;
9447;SDS011;4762;48.128;11.376;2023-04-08T06:09:34;5.50;;;3.27;;
9447;SDS011;4762;48.128;11.376;2023-04-08T06:11:35;3.50;;;2.97;;
9447;SDS011;4762;48.128;11.376;2023-04-08T06:13:40;6.43;;;3.67;;
9447;SDS011;4762;48.128;11.376;2023-04-08T06:15:51;5.30;;;4.07;;
9447;SDS011;4762;48.128;11.376;2023-04-08T06:17:57;6.23;;;4.57;;
9447;SDS011;4762;48.128;11.376;2023-04-08T06:20:05;7.60;;;3.47;;
9447;SDS011;4762;48.128;11.376;2023-04-08T06:22:15;3.37;;;3.07;;
9447;SDS011;4762;48.128;11.376;2023-04-08T06:24:20;8.83;;;4.43;;
9447;SDS011;4762;48.128;11.376;2023-04-08T06:26:25;5.60;;;3.77;;
9447;SDS011;4762;48.128;11.376;2023-04-08T06:28:28;5.03;;;3.67;;
9447;SDS011;4762;48.128;11.376;2023-04-08T06:30:33;6.20;;;3.90;;
9447;SDS011;4762;48.128;11.376;2023-04-08T06:32:36;6.17;;;4.80;;
9447;SDS011;4762;48.128;11.376;2023-04-08T06:34:38;5.77;;;4.27;;
9447;SDS011;4762;48.128;11.376;2023-04-08T06:36:41;10.30;;;5.30;;
9447;SDS011;4762;48.128;11.376;2023-04-08T06:38:44;7.00;;;4.03;;
9447;SDS011;4762;48.128;11.376;2023-04-08T06:40:46;8.77;;;4.13;;
9447;SDS011;4762;48.128;11.376;2023-04-08T06:42:48;7.30;;;4.47;;
9447;SDS011;4762;48.128;11.376;2023-04-08T06:44:51;7.07;;;4.80;;
9447;SDS011;4762;48.128;11.376;2023-04-08T06:46:54;9.13;;;4.57;;
9447;SDS011;4762;48.128;11.376;2023-04-08T06:48:57;5.93;;;4.63;;
9447;SDS011;4762;48.128;11.376;2023-04-08T06:51:00;4.40;;;3.50;;
9447;SDS011;4762;48.128;11.376;2023-04-08T06:53:02;5.00;;;4.47;;
9447;SDS011;4762;48.128;11.376;2023-04-08T06:55:04;5.60;;;4.23;;
9447;SDS011;4762;48.128;11.376;2023-04-08T06:57:07;6.73;;;4.10;;
9447;SDS011;4762;48.128;11.376;2023-04-08T06:59:09;7.17;;;4.80;;
9447;SDS011;4762;48.128;11.376;2023-04-08T07:01:11;9.30;;;5.60;;
9447;SDS011;4762;48.128;11.376;2023-04-08T07:03:14;9.13;;;5.30;;
9447;SDS011;4762;48.128;11.376;2023-04-08T07:05:16;9.73;;;6.03;;
9447;SDS011;4762;48.128;11.376;2023-04-08T07:07:19;7.67;;;5.37;;
9447;SDS011;4762;48.128;11.376;2023-04-08T07:09:21;6.90;;;4.70;;
9447;SDS011;4762;48.128;11.376;2023-04-08T07:11:23;11.77;;;6.93;;
9447;SDS011;4762;48.128;11.376;2023-04-08T07:13:25;7.60;;;5.50;;
9447;SDS011;4762;48.128;11.376;2023-04-08T07:15:27;8.50;;;5.43;;
9447;SDS011;4762;48.128;11.376;2023-04-08T07:17:30;9.93;;;5.40;;
9447;SDS011;4762;48.128;11.376;2023-04-08T07:19:32;23.07;;;6.23;;
9447;SDS011;4762;48.128;11.376;2023-04-08T07:21:34;10.03;;;6.57;;
9447;SDS011;4762;48.128;11.376;2023-04-08T07:23:36;8.67;;;6.27;;
9447;SDS011;4762;48.128;11.376;2023-04-08T07:25:39;6.00;;;5.20;;
9447;SDS011;4762;48.128;11.376;2023-04-08T07:27:41;16.43;;;7.10;;
9447;SDS011;4762;48.128;11.376;2023-04-08T07:29:43;9.10;;;6.40;;
9447;SDS011;4762;48.128;11.376;2023-04-08T07:31:45;10.43;;;6.60;;
9447;SDS011;4762;48.128;11.376;2023-04-08T07:33:47;14.73;;;6.17;;
9447;SDS011;4762;48.128;11.376;2023-04-08T07:35:50;10.27;;;6.40;;
9447;SDS011;4762;48.128;11.376;2023-04-08T07:37:52;9.33;;;6.07;;
9447;SDS011;4762;48.128;11.376;2023-04-08T07:39:54;17.70;;;7.37;;
9447;SDS011;4762;48.128;11.376;2023-04-08T07:41:56;11.73;;;7.43;;
9447;SDS011;4762;48.128;11.376;2023-04-08T07:43:58;11.13;;;6.10;;
9447;SDS011;4762;48.128;11.376;2023-04-08T07:46:01;7.87;;;5.60;;
9447;SDS011;4762;48.128;11.376;2023-04-08T07:48:06;10.10;;;7.17;;
9447;SDS011;4762;48.128;11.376;2023-04-08T07:50:08;7.77;;;5.70;;
9447;SDS011;4762;48.128;11.376;2023-04-08T07:52:10;8.30;;;6.03;;
9447;SDS011;4762;48.128;11.376;2023-04-08T07:54:13;11.53;;;5.97;;
9447;SDS011;4762;48.128;11.376;2023-04-08T07:56:16;12.80;;;6.40;;
9447;SDS011;4762;48.128;11.376;2023-04-08T07:58:18;10.93;;;7.00;;
9447;SDS011;4762;48.128;11.376;2023-04-08T08:00:20;6.50;;;4.80;;
9447;SDS011;4762;48.128;11.376;2023-04-08T08:02:22;12.80;;;5.57;;
9447;SDS011;4762;48.128;11.376;2023-04-08T08:04:24;7.03;;;5.30;;
9447;SDS011;4762;48.128;11.376;2023-04-08T08:06:27;8.57;;;6.17;;
9447;SDS011;4762;48.128;11.376;2023-04-08T08:08:29;7.13;;;5.73;;
9447;SDS011;4762;48.128;11.376;2023-04-08T08:10:31;8.57;;;6.20;;
9447;SDS011;4762;48.128;11.376;2023-04-08T08:12:33;9.27;;;5.63;;
9447;SDS011;4762;48.128;11.376;2023-04-08T08:14:35;14.43;;;6.10;;
9447;SDS011;4762;48.128;11.376;2023-04-08T08:16:38;9.07;;;6.40;;
9447;SDS011;4762;48.128;11.376;2023-04-08T08:18:40;8.00;;;5.37;;
9447;SDS011;4762;48.128;11.376;2023-04-08T08:20:42;8.93;;;6.40;;
9447;SDS011;4762;48.128;11.376;2023-04-08T08:22:44;7.50;;;5.57;;
9447;SDS011;4762;48.128;11.376;2023-04-08T08:24:47;10.30;;;6.57;;
9447;SDS011;4762;48.128;11.376;2023-04-08T08:26:49;11.10;;;6.07;;
9447;SDS011;4762;48.128;11.376;2023-04-08T08:28:51;7.43;;;5.67;;
9447;SDS011;4762;48.128;11.376;2023-04-08T08:30:59;9.50;;;5.13;;
9447;SDS011;4762;48.128;11.376;2023-04-08T08:33:01;10.00;;;6.13;;
9447;SDS011;4762;48.128;11.376;2023-04-08T08:35:03;6.93;;;4.50;;
9447;SDS011;4762;48.128;11.376;2023-04-08T08:37:06;7.40;;;4.70;;
9447;SDS011;4762;48.128;11.376;2023-04-08T08:39:08;7.23;;;5.73;;
9447;SDS011;4762;48.128;11.376;2023-04-08T08:41:14;6.13;;;5.07;;
9447;SDS011;4762;48.128;11.376;2023-04-08T08:43:16;5.80;;;4.80;;
9447;SDS011;4762;48.128;11.376;2023-04-08T08:45:18;9.03;;;6.27;;
9447;SDS011;4762;48.128;11.376;2023-04-08T08:47:21;8.97;;;5.70;;
9447;SDS011;4762;48.128;11.376;2023-04-08T08:49:23;6.80;;;5.70;;
9447;SDS011;4762;48.128;11.376;2023-04-08T08:51:25;6.57;;;4.77;;
9447;SDS011;4762;48.128;11.376;2023-04-08T08:53:29;7.27;;;5.53;;
9447;SDS011;4762;48.128;11.376;2023-04-08T08:55:31;10.37;;;6.00;;
9447;SDS011;4762;48.128;11.376;2023-04-08T08:57:35;7.87;;;4.87;;
9447;SDS011;4762;48.128;11.376;2023-04-08T08:59:39;7.90;;;4.80;;
9447;SDS011;4762;48.128;11.376;2023-04-08T09:01:41;12.80;;;6.50;;
9447;SDS011;4762;48.128;11.376;2023-04-08T09:03:44;7.27;;;5.03;;
9447;SDS011;4762;48.128;11.376;2023-04-08T09:05:47;10.23;;;5.00;;
9447;SDS011;4762;48.128;11.376;2023-04-08T09:10:27;9.20;;;5.53;;
9447;SDS011;4762;48.128;11.376;2023-04-08T09:12:27;15.13;;;5.70;;
9447;SDS011;4762;48.128;11.376;2023-04-08T09:14:30;11.47;;;5.90;;
9447;SDS011;4762;48.128;11.376;2023-04-08T09:16:32;5.40;;;4.30;;
9447;SDS011;4762;48.128;11.376;2023-04-08T09:18:35;8.20;;;5.20;;
9447;SDS011;4762;48.128;11.376;2023-04-08T09:20:37;10.97;;;5.93;;
9447;SDS011;4762;48.128;11.376;2023-04-08T09:25:17;8.43;;;4.73;;
9447;SDS011;4762;48.128;11.376;2023-04-08T09:27:05;6.17;;;3.97;;
9447;SDS011;4762;48.128;11.376;2023-04-08T09:29:07;6.73;;;4.53;;
9447;SDS011;4762;48.128;11.376;2023-04-08T09:33:20;8.37;;;5.47;;
9447;SDS011;4762;48.128;11.376;2023-04-08T09:35:23;9.50;;;4.83;;
9447;SDS011;4762;48.128;11.376;2023-04-08T09:37:25;9.97;;;5.73;;
9447;SDS011;4762;48.128;11.376;2023-04-08T09:39:28;8.23;;;5.07;;
9447;SDS011;4762;48.128;11.376;2023-04-08T09:41:33;7.87;;;4.63;;
9447;SDS011;4762;48.128;11.376;2023-04-08T09:43:37;6.73;;;4.17;;
9447;SDS011;4762;48.128;11.376;2023-04-08T09:45:38;13.90;;;5.63;;
9447;SDS011;4762;48.128;11.376;2023-04-08T09:47:43;8.13;;;6.30;;
9447;SDS011;4762;48.128;11.376;2023-04-08T09:49:45;9.97;;;5.63;;
9447;SDS011;4762;48.128;11.376;2023-04-08T09:51:58;11.13;;;5.83;;
9447;SDS011;4762;48.128;11.376;2023-04-08T09:54:00;6.20;;;4.00;;
9447;SDS011;4762;48.128;11.376;2023-04-08T09:56:02;8.23;;;5.57;;
9447;SDS011;4762;48.128;11.376;2023-04-08T09:58:07;6.20;;;4.30;;
9447;SDS011;4762;48.128;11.376;2023-04-08T10:00:10;6.90;;;4.00;;
9447;SDS011;4762;48.128;11.376;2023-04-08T10:02:12;7.40;;;4.90;;
9447;SDS011;4762;48.128;11.376;2023-04-08T10:04:15;10.13;;;5.67;;
9447;SDS011;4762;48.128;11.376;2023-04-08T10:06:20;6.70;;;4.90;;
9447;SDS011;4762;48.128;11.376;2023-04-08T10:08:23;9.03;;;6.50;;
9447;SDS011;4762;48.128;11.376;2023-04-08T10:10:25;35.30;;;15.47;;
9447;SDS011;4762;48.128;11.376;2023-04-08T10:12:29;8.10;;;6.57;;
9447;SDS011;4762;48.128;11.376;2023-04-08T10:14:32;9.07;;;6.17;;
9447;SDS011;4762;48.128;11.376;2023-04-08T10:16:34;8.53;;;6.77;;
9447;SDS011;4762;48.128;11.376;2023-04-08T10:18:37;8.10;;;6.50;;
9447;SDS011;4762;48.128;11.376;2023-04-08T10:20:40;7.73;;;6.50;;
9447;SDS011;4762;48.128;11.376;2023-04-08T10:22:45;6.17;;;4.43;;
9447;SDS011;4762;48.128;11.376;2023-04-08T10:27:24;9.77;;;5.47;;
9447;SDS011;4762;48.128;11.376;2023-04-08T10:31:38;9.57;;;6.13;;
9447;SDS011;4762;48.128;11.376;2023-04-08T10:33:36;9.23;;;5.97;;
9447;SDS011;4762;48.128;11.376;2023-04-08T10:35:41;9.80;;;7.10;;
9447;SDS011;4762;48.128;11.376;2023-04-08T10:37:43;14.97;;;8.53;;
9447;SDS011;4762;48.128;11.376;2023-04-08T10:39:47;21.03;;;13.40;;
9447;SDS011;4762;48.128;11.376;2023-04-08T10:41:50;10.47;;;6.73;;
9447;SDS011;4762;48.128;11.376;2023-04-08T10:43:52;18.53;;;7.67;;
9447;SDS011;4762;48.128;11.376;2023-04-08T10:45:55;8.37;;;6.50;;
9447;SDS011;4762;48.128;11.376;2023-04-08T10:48:18;14.47;;;6.83;;
9447;SDS011;4762;48.128;11.376;2023-04-08T10:50:19;9.63;;;5.13;;
9447;SDS011;4762;48.128;11.376;2023-04-08T10:52:23;11.40;;;6.20;;
9447;SDS011;4762;48.128;11.376;2023-04-08T10:54:25;12.90;;;5.97;;
9447;SDS011;4762;48.128;11.376;2023-04-08T10:56:27;11.10;;;6.33;;
9447;SDS011;4762;48.128;11.376;2023-04-08T10:58:32;11.23;;;5.53;;
9447;SDS011;4762;48.128;11.376;2023-04-08T11:02:59;10.50;;;6.40;;
9447;SDS011;4762;48.128;11.376;2023-04-08T11:05:05;13.20;;;6.47;;
9447;SDS011;4762;48.128;11.376;2023-04-08T11:07:08;8.50;;;5.77;;
9447;SDS011;4762;48.128;11.376;2023-04-08T11:09:10;10.10;;;6.33;;
9447;SDS011;4762;48.128;11.376;2023-04-08T11:11:12;8.20;;;6.40;;
9447;SDS011;4762;48.128;11.376;2023-04-08T11:13:14;8.23;;;5.40;;
9447;SDS011;4762;48.128;11.376;2023-04-08T11:15:17;5.97;;;5.10;;
9447;SDS011;4762;48.128;11.376;2023-04-08T11:17:19;21.63;;;7.87;;
9447;SDS011;4762;48.128;11.376;2023-04-08T11:19:22;7.17;;;5.50;;
9447;SDS011;4762;48.128;11.376;2023-04-08T11:21:24;20.23;;;7.20;;
9447;SDS011;4762;48.128;11.376;2023-04-08T11:23:28;9.73;;;5.77;;
9447;SDS011;4762;48.128;11.376;2023-04-08T11:25:31;8.70;;;5.10;;
9447;SDS011;4762;48.128;11.376;2023-04-08T11:27:33;12.30;;;6.63;;
9447;SDS011;4762;48.128;11.376;2023-04-08T11:29:36;8.03;;;5.40;;
9447;SDS011;4762;48.128;11.376;2023-04-08T11:31:38;5.60;;;5.10;;
9447;SDS011;4762;48.128;11.376;2023-04-08T11:33:44;8.13;;;5.67;;
9447;SDS011;4762;48.128;11.376;2023-04-08T11:35:50;10.83;;;6.07;;
9447;SDS011;4762;48.128;11.376;2023-04-08T11:37:50;14.60;;;7.50;;
9447;SDS011;4762;48.128;11.376;2023-04-08T11:39:55;8.63;;;6.00;;
9447;SDS011;4762;48.128;11.376;2023-04-08T11:41:58;11.70;;;6.90;;
9447;SDS011;4762;48.128;11.376;2023-04-08T11:44:01;9.50;;;5.50;;
9447;SDS011;4762;48.128;11.376;2023-04-08T11:46:07;7.80;;;6.67;;
9447;SDS011;4762;48.128;11.376;2023-04-08T11:48:11;9.10;;;7.27;;
9447;SDS011;4762;48.128;11.376;2023-04-08T11:54:40;18.00;;;14.20;;
9447;SDS011;4762;48.128;11.376;2023-04-08T11:56:43;47.50;;;30.07;;
9447;SDS011;4762;48.128;11.376;2023-04-08T11:58:45;9.67;;;7.47;;
9447;SDS011;4762;48.128;11.376;2023-04-08T12:00:48;16.70;;;8.50;;
9447;SDS011;4762;48.128;11.376;2023-04-08T12:02:52;8.97;;;5.87;;
9447;SDS011;4762;48.128;11.376;2023-04-08T12:04:54;12.30;;;6.93;;
9447;SDS011;4762;48.128;11.376;2023-04-08T12:06:56;8.23;;;5.53;;
9447;SDS011;4762;48.128;11.376;2023-04-08T12:08:58;8.53;;;5.43;;
9447;SDS011;4762;48.128;11.376;2023-04-08T12:11:01;9.20;;;5.73;;
9447;SDS011;4762;48.128;11.376;2023-04-08T12:13:03;7.03;;;4.70;;
9447;SDS011;4762;48.128;11.376;2023-04-08T12:15:05;10.10;;;4.83;;
9447;SDS011;4762;48.128;11.376;2023-04-08T12:17:10;19.60;;;6.30;;
9447;SDS011;4762;48.128;11.376;2023-04-08T12:19:13;7.50;;;6.00;;
9447;SDS011;4762;48.128;11.376;2023-04-08T12:21:16;7.13;;;4.80;;
9447;SDS011;4762;48.128;11.376;2023-04-08T12:23:22;6.50;;;4.43;;
9447;SDS011;4762;48.128;11.376;2023-04-08T12:25:24;7.73;;;5.63;;
9447;SDS011;4762;48.128;11.376;2023-04-08T12:27:31;8.30;;;5.80;;
9447;SDS011;4762;48.128;11.376;2023-04-08T12:29:34;9.67;;;6.23;;
9447;SDS011;4762;48.128;11.376;2023-04-08T12:31:37;8.07;;;5.10;;
9447;SDS011;4762;48.128;11.376;2023-04-08T12:33:39;6.00;;;4.50;;
9447;SDS011;4762;48.128;11.376;2023-04-08T12:35:41;9.70;;;6.27;;
9447;SDS011;4762;48.128;11.376;2023-04-08T12:37:44;7.20;;;5.50;;
9447;SDS011;4762;48.128;11.376;2023-04-08T12:39:46;7.47;;;6.23;;
9447;SDS011;4762;48.128;11.376;2023-04-08T12:41:49;10.00;;;5.53;;
9447;SDS011;4762;48.128;11.376;2023-04-08T12:43:52;7.47;;;5.23;;
9447;SDS011;4762;48.128;11.376;2023-04-08T12:45:54;6.40;;;4.70;;
9447;SDS011;4762;48.128;11.376;2023-04-08T12:47:57;7.77;;;5.83;;
9447;SDS011;4762;48.128;11.376;2023-04-08T12:50:00;10.50;;;6.30;;